Aérodrome :
LOGIN :

S'inscrire | Disclaimer

   EN    FR    IT 

 










Légende :    VFR   VFR Marginal   IFR   IFR Intensif   IFR Très Intensif
Visi : 
Plafond : 
>= 8 km
>= 3000ft
5 à 8 km
1000 à 3000 ft
1500m à 5 km
500 à 1000 ft
800 à 1500m
200 à 500 ft
< 800m
< 200 ft
Symboles :   Orages  Brouillard  Fortes neiges  Fortes précipitations  Vent > 20 kt
SIGMETs :   Divers  Orages  Givrage  Turbulence  Onde Orograph.  Cendres Volcan.






- Altitude de l'aérodrome : 287 ft


LFRL - Lanveoc Poulmic

DERNIER METAR :
  • 202130Z AUTO 29018KT 9999 BKN014 BKN026 BKN032 08/06 Q0988

METARs EXPIRÉS :
  • 202100Z AUTO 30018KT 5000 RA BR BKN007/// OVC027/// ///TCU 08/07 Q0987
  • 202030Z AUTO 30019KT 7000 OVC009 09/08 Q0985
  • 202000Z AUTO 27022G36KT 230V300 7000 BKN006/// OVC012/// ///CB 10/09 Q0984
  • 201930Z AUTO 24017KT 9999 OVC006 11/10 Q0983
  • 201900Z AUTO 23019KT 5000 BR BKN004 OVC008 11/10 Q0983

TAF TAF LFRL
Valide du 20 à 12h jusqu'au 21 à 12h UTC


201100Z 2012/2112 19020G35KT 9999 OVC020
BECMG 2012/2015 OVC014
TEMPO 2012/2021 4000 -RA BKN007
PROB40
TEMPO 2015/2021 2000 RA BKN004 BKN020CB
BECMG 2020/2022 28020G30KT BKN030
PROB30
TEMPO 2022/2108 4500 -SHRA BKN020TCU
BECMG 2108/2110 15010KT 3000 RA BKN008 OVC015



MET'MAP, la Météo Aéronautique d'un coup d'oeil ! - Copyright ORBIFLY Décembre 2007 - Disclaimer

ORBIFLY MET'MAP TEAM :

Programmation & Développement : Alexandra Zaïnal
Sur une idée originale de : Baudouin d'Aumeries
Assistance à la programmation : Marc-Olivier Méhu
Soutien technique & logistique : Manuel Goepfert

Contact : metmap@orbifly.com




SOURCES & CREDITS :

   NOAA